1992 KENT (1992216N06182)


On this page: IBTrACS data - Map and Plots - Positions - Intensities - Original source data

Summary

Start Aug 3
End Aug 20
Basins EP
WP
LMI 130 kt
Sources jtwc_wp
tokyo
cma
hko
In WMO? Yes
Previous storm 1992 JAVIER (EP)
Previous in basin 1992 JAVIER (EP)
Concurrent storms 1992 JANIS (WP)
1992 IRVING (WP)
1992 JAVIER (EP)
1992 KENT (EP)
1992 MISSING (EP)
1992 LOIS (WP)
1992 MARK (WP)
1992 NINA (WP)
1992 ANDREW (NA)
1992 KAY (EP)
1992 LESTER (EP)
Next in basin 1992 MISSING (EP)
Next storm 1992 MISSING (EP)

top of page IBTrACS Data: File Access

top of page HURSAT Data: File Access

Image of storm

top of page Plots:

Map of storm track will not appear if FTP is down
Time series of cyclone Maximum Sustained Wind will not appear if FTP is down
Time series of cyclone Minimum Central Pressure will not appear if FTP is down

top of page Track Data:Position

jtwc_wp tokyo cma hko
Date Lat Lon Lat Lon Lat Lon Lat Lon
1992-08-03 06:00:00 5.8 -178.0
1992-08-03 12:00:00 6.2 -179.2
1992-08-03 18:00:00 6.6 179.5
1992-08-04 00:00:00 7.0 178.2
1992-08-04 06:00:00 7.4 176.9
1992-08-04 12:00:00 7.9 175.4
1992-08-04 18:00:00 8.3 174.0
1992-08-05 00:00:00 8.7 172.7 9.5 172.1
1992-08-05 06:00:00 9.1 171.5 9.5 171.7 9.8 171.3
1992-08-05 12:00:00 9.4 170.3 10.0 170.5 10.0 170.5 10.2 170.5
1992-08-05 18:00:00 9.8 169.4 10.4 169.5 10.4 169.5 10.7 169.6
1992-08-06 00:00:00 10.5 168.6 10.8 168.7 10.9 168.8 11.2 168.7
1992-08-06 06:00:00 11.5 167.9 11.6 167.9 11.6 168.0 11.7 167.9
1992-08-06 12:00:00 12.1 166.8 12.2 167.0 12.0 167.0 12.2 166.9
1992-08-06 18:00:00 12.8 165.7 12.7 165.9 12.6 166.0 12.7 165.8
1992-08-07 00:00:00 13.4 164.6 13.3 164.8 13.3 164.8 13.3 164.7
1992-08-07 06:00:00 14.0 163.6 13.8 163.5 13.8 163.5 13.9 163.5
1992-08-07 12:00:00 14.6 162.6 14.4 162.5 14.4 162.6 14.5 162.5
1992-08-07 18:00:00 15.0 161.5 15.1 161.6 15.3 161.4 15.1 161.6
1992-08-08 00:00:00 15.5 160.5 15.8 160.8 15.8 160.7 15.9 160.7
1992-08-08 06:00:00 16.2 159.6 16.6 159.9 16.6 159.9 16.6 159.7
1992-08-08 12:00:00 17.0 158.9 17.2 159.1 17.1 159.0 17.1 158.6
1992-08-08 18:00:00 17.5 157.8 17.6 158.1 17.5 158.1 17.6 157.5
1992-08-09 00:00:00 18.0 156.7 17.9 156.6 17.9 156.6 18.0 156.5
1992-08-09 06:00:00 18.5 155.4 18.2 155.6 18.2 155.6 18.4 155.6
jtwc_wp tokyo cma hko
1992-08-09 12:00:00 18.9 154.5 18.8 154.5 18.8 154.5 18.7 154.7
1992-08-09 18:00:00 19.2 153.6 19.2 153.8 19.2 153.8 19.0 153.9
1992-08-10 00:00:00 19.4 152.8 19.4 153.0 19.4 153.0 19.3 153.0
1992-08-10 06:00:00 19.6 152.0 19.6 152.2 19.6 152.2 19.5 152.0
1992-08-10 12:00:00 19.9 151.1 19.8 151.3 19.8 151.3 19.8 151.1
1992-08-10 18:00:00 20.2 150.2 20.2 150.3 20.2 150.3 20.1 150.2
1992-08-11 00:00:00 20.5 149.3 20.6 149.4 20.6 149.4 20.5 149.3
1992-08-11 06:00:00 20.9 148.4 20.9 148.6 20.9 148.6 20.8 148.5
1992-08-11 12:00:00 21.3 147.7 21.2 147.9 21.2 147.9 21.2 147.8
1992-08-11 18:00:00 21.7 147.0 21.6 147.1 21.6 147.3 21.6 147.0
1992-08-12 00:00:00 22.1 146.3 22.1 146.5 22.1 146.6 22.0 146.4
1992-08-12 06:00:00 22.5 145.8 22.5 145.9 22.5 145.9 22.5 145.9
1992-08-12 12:00:00 22.8 145.4 22.8 145.5 22.8 145.5 22.8 145.5
1992-08-12 18:00:00 23.2 145.1 23.2 145.2 23.2 145.2 23.2 145.2
1992-08-13 00:00:00 23.6 145.0 23.6 144.9 23.6 144.9 23.6 144.9
1992-08-13 06:00:00 24.0 144.8 24.0 144.7 24.0 144.7 24.0 144.7
1992-08-13 12:00:00 24.5 144.7 24.5 144.7 24.5 144.7 24.5 144.4
1992-08-13 18:00:00 25.2 144.5 25.1 144.4 25.0 144.4 25.0 144.1
1992-08-14 00:00:00 25.8 144.0 25.8 143.9 25.8 143.9 25.5 143.9
1992-08-14 06:00:00 26.1 143.6 26.1 143.4 26.1 143.6 26.0 143.6
1992-08-14 12:00:00 26.4 143.2 26.4 143.1 26.4 143.1 26.4 143.2
1992-08-14 18:00:00 26.7 142.7 26.8 142.6 26.8 142.6 26.8 142.6
1992-08-15 00:00:00 27.0 142.3 27.0 142.0 26.9 142.0 27.0 142.0
1992-08-15 06:00:00 27.2 141.7 27.2 141.6 27.1 141.6 27.1 141.5
jtwc_wp tokyo cma hko
1992-08-15 12:00:00 27.4 140.8 27.4 141.0 27.4 141.0 27.3 140.9
1992-08-15 18:00:00 27.5 139.9 27.6 140.4 27.6 140.4 27.4 140.2
1992-08-16 00:00:00 27.7 139.0 27.8 139.7 27.8 139.7 27.7 139.4
1992-08-16 06:00:00 27.9 138.0 28.1 138.7 28.3 138.6 27.9 138.3
1992-08-16 12:00:00 28.1 137.1 28.6 137.3 28.6 137.3 28.2 137.2
1992-08-16 18:00:00 28.3 136.2 28.8 136.1 28.8 136.1 28.5 136.1
1992-08-17 00:00:00 28.7 135.3 28.9 135.1 28.9 135.1 28.9 135.0
1992-08-17 06:00:00 29.1 134.3 29.3 134.2 29.4 134.1 29.3 134.1
1992-08-17 12:00:00 29.7 133.4 30.0 133.4 30.1 133.3 29.8 133.4
1992-08-17 18:00:00 30.3 132.7 30.2 132.8 30.3 132.9 30.3 132.7
1992-08-18 00:00:00 31.0 132.1 31.0 132.3 31.0 132.1 30.9 132.2
1992-08-18 06:00:00 31.7 131.6 31.7 132.0 31.7 132.0 31.6 131.9
1992-08-18 12:00:00 32.4 131.2 32.8 131.8 32.8 131.8
1992-08-18 18:00:00 33.2 131.0 34.1 131.2 34.0 131.8
1992-08-19 00:00:00 34.1 130.9 35.4 131.2 34.8 132.1
1992-08-19 06:00:00 35.1 130.9 35.8 131.6 35.5 132.5
1992-08-19 12:00:00 36.3 131.2 36.0 132.0 35.9 133.3
1992-08-19 18:00:00 37.5 131.9 36.7 134.5
1992-08-20 00:00:00 38.6 132.8

top of pageTrack Data:Intensity

jtwc_wp tokyo cma hko
Date Wind Pres Wind Pres Wind Pres Wind Pres
1992-08-03 06:00:00 15.
1992-08-03 12:00:00 15.
1992-08-03 18:00:00 20.
1992-08-04 00:00:00 20.
1992-08-04 06:00:00 20.
1992-08-04 12:00:00 20.
1992-08-04 18:00:00 20.
1992-08-05 00:00:00 25. 25. 1000.
1992-08-05 06:00:00 25. 1006. 25. 1000.
1992-08-05 12:00:00 25. 1006. 19. 1006. 30. 995.
1992-08-05 18:00:00 30. 1004. 23. 1004. 35. 990.
1992-08-06 00:00:00 35. 1004. 29. 1000. 40. 985.
1992-08-06 06:00:00 45. 35. 996. 39. 995. 45. 980.
1992-08-06 12:00:00 55. 45. 990. 39. 990. 50. 975.
1992-08-06 18:00:00 65. 45. 990. 49. 985. 50. 975.
1992-08-07 00:00:00 75. 55. 980. 58. 980. 50. 975.
1992-08-07 06:00:00 75. 55. 980. 58. 980. 45. 980.
1992-08-07 12:00:00 80. 60. 975. 58. 975. 45. 980.
1992-08-07 18:00:00 85. 65. 970. 68. 970. 45. 980.
1992-08-08 00:00:00 90. 65. 970. 68. 970. 40. 985.
1992-08-08 06:00:00 90. 65. 970. 68. 970. 40. 985.
1992-08-08 12:00:00 90. 65. 970. 68. 970. 40. 985.
1992-08-08 18:00:00 90. 65. 970. 68. 970. 45. 980.
1992-08-09 00:00:00 90. 65. 970. 68. 970. 45. 980.
1992-08-09 06:00:00 90. 65. 970. 68. 970. 50. 975.
jtwc_wp tokyo cma hko
1992-08-09 12:00:00 95. 65. 970. 68. 970. 60. 965.
1992-08-09 18:00:00 95. 70. 965. 68. 965. 65. 960.
1992-08-10 00:00:00 95. 75. 960. 78. 960. 75. 950.
1992-08-10 06:00:00 100. 80. 955. 78. 960. 65. 960.
1992-08-10 12:00:00 110. 80. 950. 87. 955. 65. 960.
1992-08-10 18:00:00 120. 85. 945. 87. 950. 70. 955.
1992-08-11 00:00:00 125. 90. 935. 97. 940. 75. 950.
1992-08-11 06:00:00 125. 90. 935. 107. 935. 70. 955.
1992-08-11 12:00:00 130. 95. 930. 107. 930. 75. 950.
1992-08-11 18:00:00 130. 95. 930. 107. 930. 80. 950.
1992-08-12 00:00:00 130. 95. 930. 107. 930. 80. 950.
1992-08-12 06:00:00 130. 90. 935. 107. 930. 80. 950.
1992-08-12 12:00:00 125. 85. 940. 107. 935. 85. 945.
1992-08-12 18:00:00 120. 80. 950. 97. 940. 70. 955.
1992-08-13 00:00:00 115. 80. 950. 87. 945. 70. 955.
1992-08-13 06:00:00 110. 75. 955. 87. 945. 70. 955.
1992-08-13 12:00:00 105. 75. 955. 87. 950. 70. 955.
1992-08-13 18:00:00 100. 75. 960. 87. 955. 70. 955.
1992-08-14 00:00:00 95. 75. 960. 78. 960. 70. 955.
1992-08-14 06:00:00 90. 70. 965. 78. 960. 80. 950.
1992-08-14 12:00:00 85. 70. 965. 78. 960. 80. 950.
1992-08-14 18:00:00 80. 65. 970. 78. 960. 75. 955.
1992-08-15 00:00:00 80. 65. 970. 68. 965. 75. 955.
1992-08-15 06:00:00 75. 65. 970. 68. 965. 75. 955.
jtwc_wp tokyo cma hko
1992-08-15 12:00:00 75. 65. 970. 68. 965. 65. 960.
1992-08-15 18:00:00 70. 65. 970. 68. 965. 60. 965.
1992-08-16 00:00:00 65. 60. 970. 68. 965. 55. 970.
1992-08-16 06:00:00 65. 60. 970. 68. 965. 50. 970.
1992-08-16 12:00:00 60. 60. 970. 68. 965. 50. 970.
1992-08-16 18:00:00 55. 60. 970. 68. 965. 50. 970.
1992-08-17 00:00:00 55. 60. 970. 58. 970. 55. 965.
1992-08-17 06:00:00 55. 60. 970. 58. 970. 55. 965.
1992-08-17 12:00:00 55. 60. 970. 58. 970. 50. 970.
1992-08-17 18:00:00 55. 60. 970. 58. 970. 50. 970.
1992-08-18 00:00:00 55. 60. 970. 58. 975. 40. 975.
1992-08-18 06:00:00 50. 55. 975. 49. 980. 30. 980.
1992-08-18 12:00:00 45. 45. 985. 49. 985.
1992-08-18 18:00:00 40. 40. 990. 49. 985.
1992-08-19 00:00:00 35. 40. 992. 39. 990.
1992-08-19 06:00:00 30. 994. 39. 994.
1992-08-19 12:00:00 25. 996. 29. 996.
1992-08-19 18:00:00 25. 23. 998.
1992-08-20 00:00:00 25.

top of page Links to source data

Source Source file Format
jtwc_wp bwp111992.txt ATCF
tokyo bst_all.txt:Line=41334:KENT:9211 JMA text table
cma CH1992BST.txt:Storm=12:Kent CMA text table
hko tc-besttrack-data-current.txt:Line=22360:KENT HKO Text table